Time;durP1;ratioP1;P1;durP2;ratioP2;P2;SDS_P1;SDS_P2;PMS_P1;PMS_P2;Temp;Humidity;BMP_temperature;BMP_pressure;BME280_temperature;BME280_humidity;BME280_pressure;Samples;Min_cycle;Max_cycle;Signal;HPM_P1;HPM_P2
2023/07/03 00:00:29;;;;;;;9.07;3.65;;;15.30;99.90;;;19.20;60.34;100026.88;4968841;28;20050;-86
2023/07/03 00:02:55;;;;;;;6.90;3.35;;;15.30;99.90;;;19.17;61.02;100038.53;4975546;28;20035;-87
2023/07/03 00:05:23;;;;;;;10.77;4.07;;;15.40;99.90;;;19.24;61.79;100031.56;4983725;28;20042;-88
2023/07/03 00:07:49;;;;;;;12.60;4.40;;;15.30;99.90;;;19.17;62.20;100027.47;4981447;28;20042;-86
2023/07/03 00:10:16;;;;;;;10.18;3.90;;;15.30;99.90;;;19.08;62.04;100033.59;4979291;28;20042;-87
2023/07/03 00:12:43;;;;;;;9.85;3.60;;;15.30;99.90;;;19.17;61.61;100027.47;4980963;28;20114;-85
2023/07/03 00:15:11;;;;;;;8.13;3.50;;;15.30;99.90;;;19.25;60.77;100021.28;4977762;28;20047;-86
2023/07/03 00:17:40;;;;;;;;;;;15.30;99.90;;;19.04;61.67;100026.19;4982439;28;20387;-86
2023/07/03 00:20:07;;;;;;;8.50;3.90;;;15.30;99.90;;;19.05;62.06;100019.53;4981269;28;19925;-87
2023/07/03 00:22:33;;;;;;;10.75;4.00;;;15.20;99.90;;;19.13;61.73;100016.16;4976598;28;20129;-86
2023/07/03 00:24:59;;;;;;;9.77;4.03;;;15.20;99.90;;;19.33;61.50;100025.38;4988261;28;20115;-87
2023/07/03 00:27:24;;;;;;;9.63;3.72;;;15.20;99.90;;;19.30;61.33;100015.72;4978959;28;20058;-85
2023/07/03 00:29:50;;;;;;;10.25;3.78;;;15.20;99.90;;;19.18;62.19;100018.06;4978311;28;20383;-89
2023/07/03 00:32:16;;;;;;;12.27;4.22;;;15.20;99.90;;;19.18;61.17;100018.06;4988416;28;20158;-87
2023/07/03 00:34:41;;;;;;;10.50;4.03;;;15.20;99.90;;;18.97;62.78;100012.66;4984932;28;20055;-86
2023/07/03 00:37:07;;;;;;;9.43;3.72;;;15.20;99.90;;;18.88;63.55;100014.41;4968374;28;20494;-86
2023/07/03 00:39:33;;;;;;;10.20;3.90;;;15.10;99.90;;;18.86;63.45;100006.38;4976053;28;20047;-87
2023/07/03 00:41:59;;;;;;;9.10;3.90;;;15.10;99.90;;;18.93;63.46;100012.41;4993726;28;20442;-86
2023/07/03 00:44:25;;;;;;;10.70;3.78;;;15.10;99.90;;;18.99;63.24;99988.34;4999141;28;20038;-86
2023/07/03 00:46:51;;;;;;;11.68;4.10;;;15.00;99.90;;;18.96;63.05;99999.97;4995773;28;20053;-86
2023/07/03 00:49:20;;;;;;;9.48;3.95;;;15.00;99.90;;;18.97;64.27;100015.44;5002651;28;20053;-86
2023/07/03 00:51:55;;;;;;;11.45;4.63;;;15.00;99.90;;;19.08;65.14;100014.25;5002364;28;20049;-87
2023/07/03 00:54:21;;;;;;;9.32;3.90;;;15.00;99.90;;;19.16;64.89;100014.75;4988736;28;20038;-87
2023/07/03 00:56:48;;;;;;;11.27;4.13;;;15.00;99.90;;;19.05;65.04;100005.72;4978471;28;20394;-86
2023/07/03 00:59:15;;;;;;;10.90;3.90;;;15.00;99.90;;;19.01;64.77;100001.91;4986924;28;20196;-86
2023/07/03 01:01:46;;;;;;;9.70;4.10;;;15.00;99.90;;;18.85;65.30;100014.97;4991328;28;20046;-90
2023/07/03 01:04:30;;;;;;;7.60;3.75;;;15.10;99.90;;;18.95;64.84;100004.66;4987871;28;20042;-86
2023/07/03 01:07:08;;;;;;;12.60;4.70;;;15.10;99.90;;;19.05;65.44;100011.25;4964154;28;20082;-87
2023/07/03 01:09:46;;;;;;;11.57;3.70;;;15.00;99.90;;;18.84;65.50;100008.63;4981179;28;20406;-85
2023/07/03 01:12:12;;;;;;;11.10;4.05;;;15.00;99.90;;;18.71;67.08;100012.84;4985851;28;20480;-86
2023/07/03 01:14:41;;;;;;;7.85;3.92;;;14.90;99.90;;;18.67;68.37;100011.78;4975336;28;20053;-85
2023/07/03 01:17:10;;;;;;;10.68;3.75;;;14.80;99.90;;;18.69;67.88;100001.28;4976108;28;20039;-86
2023/07/03 01:19:41;;;;;;;10.30;4.38;;;14.70;99.90;;;18.80;68.96;100008.34;4970072;28;20049;-86
2023/07/03 01:22:23;;;;;;;11.75;4.82;;;14.60;99.90;;;18.61;68.73;99999.13;4980622;28;20064;-86
2023/07/03 01:25:04;;;;;;;10.73;4.10;;;14.50;99.90;;;18.57;69.30;100003.56;4980965;28;20031;-86
2023/07/03 01:27:38;;;;;;;9.13;3.75;;;14.50;99.90;;;18.55;69.80;100004.66;4985983;28;20493;-86
2023/07/03 01:30:09;;;;;;;12.35;4.32;;;14.30;99.90;;;18.51;69.95;100000.81;4976032;28;20035;-88
2023/07/03 01:32:37;;;;;;;10.55;4.10;;;14.30;99.90;;;18.31;68.80;100001.78;4980609;28;20050;-85
2023/07/03 01:35:08;;;;;;;12.00;4.07;;;14.40;99.90;;;18.52;66.43;99991.44;4983186;28;20031;-87
2023/07/03 01:37:40;;;;;;;10.93;4.38;;;14.50;99.90;;;18.51;67.02;99994.50;4985624;28;20066;-86
2023/07/03 01:40:10;;;;;;;10.18;4.32;;;14.60;99.90;;;18.46;66.02;99984.28;4980022;28;20043;-85
2023/07/03 01:42:40;;;;;;;10.80;4.28;;;14.70;99.90;;;18.58;65.91;99983.13;4964664;28;20037;-86
2023/07/03 01:45:08;;;;;;;12.70;4.40;;;14.70;99.90;;;18.54;65.33;99983.69;4980066;28;20057;-86
2023/07/03 01:47:36;;;;;;;12.20;4.00;;;14.70;99.90;;;18.61;64.62;99975.06;4971804;28;20030;-85
2023/07/03 01:50:05;;;;;;;11.68;4.63;;;14.70;99.90;;;18.49;65.06;99969.91;4974723;28;20023;-88
2023/07/03 01:52:38;;;;;;;12.80;4.15;;;14.60;99.90;;;18.49;65.58;99969.09;4977699;28;20378;-85
2023/07/03 01:55:51;;;;;;;11.68;4.45;;;14.60;99.90;;;18.45;65.69;99968.84;4975478;28;20030;-84
2023/07/03 01:58:38;;;;;;;12.10;4.55;;;14.50;99.90;;;18.65;64.90;99967.84;4971246;28;20058;-85
2023/07/03 02:01:10;;;;;;;12.95;4.35;;;14.50;99.90;;;18.60;64.57;99969.84;4975866;28;20031;-83
2023/07/03 02:03:58;;;;;;;10.50;4.32;;;14.70;99.90;;;18.90;63.69;99968.78;4962371;28;20034;-84
2023/07/03 02:06:36;;;;;;;14.20;4.28;;;14.80;99.90;;;18.80;63.78;99983.50;4977945;28;20080;-85
2023/07/03 02:09:05;;;;;;;12.98;4.70;;;14.80;99.90;;;18.77;63.15;99981.31;4957784;28;20383;-88
2023/07/03 02:11:34;;;;;;;12.05;4.30;;;14.90;99.90;;;18.99;63.21;99968.19;4975092;28;20034;-89
2023/07/03 02:14:00;;;;;;;13.18;4.15;;;15.00;99.90;;;18.73;63.53;99969.19;4971211;28;20073;-88
2023/07/03 02:16:29;;;;;;;10.38;4.40;;;15.00;99.90;;;18.97;63.32;99973.97;4963244;28;20391;-87
2023/07/03 02:18:56;;;;;;;11.65;4.30;;;15.10;99.90;;;19.05;63.46;99978.91;4987986;28;20092;-86
2023/07/03 02:21:22;;;;;;;17.90;4.75;;;15.10;99.90;;;18.88;63.82;99975.72;4987871;28;20053;-87
2023/07/03 02:23:48;;;;;;;11.57;4.65;;;15.10;99.90;;;18.92;63.67;99979.53;5004110;28;20031;-85
2023/07/03 02:26:15;;;;;;;12.65;4.85;;;15.10;99.90;;;18.99;63.46;99982.00;4997400;28;20112;-86
2023/07/03 02:28:41;;;;;;;10.57;4.28;;;15.20;99.90;;;18.80;64.41;99975.19;5005569;28;20084;-84
2023/07/03 02:31:07;;;;;;;18.40;4.35;;;15.10;99.90;;;18.86;64.81;99977.94;4985229;28;20127;-83
2023/07/03 02:33:33;;;;;;;14.60;4.97;;;15.10;99.90;;;19.02;64.49;99986.97;5002752;28;20466;-85
2023/07/03 02:36:03;;;;;;;14.10;4.70;;;15.10;99.90;;;19.04;64.88;99979.19;4997480;28;20043;-85
2023/07/03 02:38:29;;;;;;;11.27;4.75;;;15.10;99.90;;;18.86;65.76;99989.81;5000568;28;20031;-85
2023/07/03 02:40:55;;;;;;;13.10;4.63;;;15.10;99.90;;;18.95;65.87;99977.00;4996078;28;20516;-85
2023/07/03 02:43:21;;;;;;;12.13;3.95;;;15.10;99.90;;;18.62;66.12;99979.50;4994070;28;20042;-84
2023/07/03 02:45:48;;;;;;;13.05;4.50;;;15.10;99.90;;;18.84;66.78;99978.22;4996940;28;20106;-85
2023/07/03 02:48:16;;;;;;;10.82;4.63;;;15.10;99.90;;;18.67;67.06;99976.69;4985491;28;20049;-84
2023/07/03 02:50:45;;;;;;;9.65;4.15;;;15.10;99.90;;;18.62;68.11;99968.44;4986263;28;20037;-82
2023/07/03 02:53:11;;;;;;;9.73;4.30;;;15.10;99.90;;;18.59;68.87;99959.91;4993077;28;20030;-86
2023/07/03 02:55:38;;;;;;;11.85;4.90;;;15.20;99.90;;;18.48;69.65;99962.72;4994655;28;20556;-85
2023/07/03 02:58:05;;;;;;;11.50;4.18;;;15.20;99.90;;;18.83;68.32;99951.72;4992141;28;20046;-85
2023/07/03 03:00:35;;;;;;;11.85;4.38;;;15.20;99.90;;;18.91;67.67;99969.59;4977919;28;20110;-85
2023/07/03 03:03:01;;;;;;;11.90;4.50;;;15.20;99.90;;;18.74;67.93;99947.94;4985723;28;20030;-86
2023/07/03 03:05:26;;;;;;;12.68;5.30;;;15.10;99.90;;;18.51;69.70;99967.69;4986316;28;20050;-85
2023/07/03 03:07:52;;;;;;;16.13;5.28;;;15.10;99.90;;;18.67;69.44;99970.34;4999335;28;20038;-84
2023/07/03 03:10:18;;;;;;;11.10;4.70;;;15.10;99.90;;;18.80;68.94;99968.88;5005330;28;20042;-86
2023/07/03 03:12:44;;;;;;;15.20;5.25;;;15.00;99.90;;;18.90;69.13;99970.72;5004220;28;20390;-85
2023/07/03 03:15:10;;;;;;;15.43;4.50;;;15.00;99.90;;;18.87;69.65;99974.06;5009744;28;20053;-87
2023/07/03 03:17:35;;;;;;;13.18;4.78;;;15.10;99.90;;;18.96;70.24;99972.31;5004801;28;20026;-80
2023/07/03 03:20:01;;;;;;;14.85;4.35;;;15.10;99.90;;;18.87;70.53;99963.03;4994885;28;20178;-80
2023/07/03 03:22:27;;;;;;;16.92;5.78;;;15.20;99.90;;;18.71;71.71;99970.59;4998027;28;20041;-80
2023/07/03 03:24:53;;;;;;;14.88;4.78;;;15.20;99.90;;;18.76;71.22;99968.59;5021816;28;20105;-84
2023/07/03 03:27:19;;;;;;;15.88;5.03;;;15.30;99.90;;;18.88;71.20;99978.47;5002340;28;20026;-86
2023/07/03 03:29:46;;;;;;;14.18;4.53;;;15.40;99.90;;;19.10;70.48;99972.50;5011837;28;20107;-84
2023/07/03 03:32:11;;;;;;;15.38;4.55;;;15.50;99.90;;;19.13;69.79;99963.63;4987943;28;20041;-86
2023/07/03 03:34:37;;;;;;;14.38;5.03;;;15.50;99.90;;;19.20;70.89;99968.81;4983332;28;20034;-84
2023/07/03 03:37:03;;;;;;;11.27;4.50;;;15.50;99.90;;;18.95;71.17;99948.56;5007408;28;20037;-85
2023/07/03 03:39:29;;;;;;;13.07;4.82;;;15.50;99.90;;;19.15;72.08;99974.41;5000535;28;20030;-84
2023/07/03 03:41:57;;;;;;;13.35;5.15;;;15.40;99.90;;;19.01;72.87;99975.06;4979706;28;20041;-85
2023/07/03 03:44:24;;;;;;;14.45;4.57;;;15.40;99.90;;;18.90;73.26;99974.28;5006607;28;20057;-84
2023/07/03 03:46:52;;;;;;;12.45;4.22;;;15.30;99.90;;;18.99;72.25;99968.19;4996911;28;20049;-86
2023/07/03 03:49:19;;;;;;;16.58;5.40;;;15.30;99.90;;;18.81;73.27;99976.84;4992940;28;20040;-85
2023/07/03 03:51:45;;;;;;;12.32;4.80;;;15.30;99.90;;;18.82;73.83;99978.50;4988722;28;20397;-84
2023/07/03 03:54:13;;;;;;;15.30;4.55;;;15.20;99.90;;;18.87;73.91;99976.84;4979845;28;20065;-86
2023/07/03 03:56:38;;;;;;;17.48;5.03;;;15.20;99.90;;;18.48;75.01;99979.31;4983983;28;20466;-85
2023/07/03 03:59:04;;;;;;;18.27;5.38;;;15.10;99.90;;;18.55;75.82;99984.50;4998525;28;20397;-85
2023/07/03 04:01:30;;;;;;;16.25;5.05;;;15.10;99.90;;;18.45;76.02;99974.34;4985940;28;20034;-83
2023/07/03 04:03:56;;;;;;;15.05;5.25;;;15.00;99.90;;;18.60;77.12;99986.44;5006673;28;20081;-83
2023/07/03 04:06:21;;;;;;;15.95;5.35;;;15.00;99.90;;;18.64;76.83;99974.50;5008836;28;20057;-80
2023/07/03 04:08:47;;;;;;;18.02;5.35;;;15.00;99.90;;;18.74;76.46;99973.59;5005696;28;20060;-84
2023/07/03 04:11:13;;;;;;;14.43;4.60;;;14.90;99.90;;;18.66;76.41;99972.28;4999152;28;20041;-86
2023/07/03 04:13:39;;;;;;;17.60;4.95;;;14.90;99.90;;;18.57;77.80;99976.75;5000895;28;20041;-87
2023/07/03 04:16:05;;;;;;;16.30;5.18;;;15.00;99.90;;;18.51;78.08;99978.72;4997531;28;20030;-85
2023/07/03 04:18:31;;;;;;;17.27;4.78;;;15.00;99.90;;;18.30;79.28;99979.97;4993982;28;20054;-88
2023/07/03 04:20:59;;;;;;;13.68;4.70;;;15.00;99.90;;;18.33;80.35;99974.72;5005350;28;20053;-86
2023/07/03 04:23:25;;;;;;;18.23;5.30;;;15.10;99.90;;;18.37;80.04;99972.22;4997790;28;20064;-88
2023/07/03 04:25:52;;;;;;;17.33;5.25;;;15.10;99.90;;;18.47;79.78;99976.84;5002784;28;20053;-83
2023/07/03 04:28:23;;;;;;;15.70;5.47;;;15.20;99.90;;;18.73;78.64;99983.00;4993470;28;20045;-85
2023/07/03 04:30:48;;;;;;;15.35;5.20;;;15.10;99.90;;;18.83;78.99;99985.69;4993750;28;20117;-85
2023/07/03 04:33:15;;;;;;;16.90;5.10;;;15.20;99.90;;;18.91;78.24;99983.44;4986932;28;20075;-85
2023/07/03 04:35:41;;;;;;;15.30;5.38;;;15.20;99.90;;;18.92;78.23;99991.41;4995120;28;20046;-84
2023/07/03 04:38:08;;;;;;;14.32;4.82;;;15.30;99.90;;;19.04;77.44;99990.25;4999715;28;20498;-87
2023/07/03 04:40:34;;;;;;;16.88;5.30;;;15.40;99.90;;;18.93;77.18;99989.47;5000861;28;20038;-90
2023/07/03 04:43:01;;;;;;;14.60;5.15;;;15.50;99.90;;;19.09;75.51;99984.69;5001039;28;20045;-87
2023/07/03 04:45:30;;;;;;;20.73;5.50;;;15.60;99.90;;;19.19;75.95;99976.28;4989062;28;20053;-87
2023/07/03 04:47:56;;;;;;;15.75;5.32;;;15.60;99.90;;;19.11;76.29;99982.44;4999855;28;20030;-85
2023/07/03 04:50:24;;;;;;;14.73;4.78;;;15.60;99.90;;;19.06;76.02;99977.78;4999939;28;20061;-84
2023/07/03 04:52:52;;;;;;;;;;;15.60;99.90;;;18.81;76.52;99987.09;4995346;28;20075;-86
2023/07/03 04:55:18;;;;;;;15.80;5.05;;;15.50;99.90;;;18.72;79.77;99978.59;4995647;28;20444;-88
2023/07/03 04:57:46;;;;;;;15.32;5.20;;;15.40;99.90;;;18.86;79.13;99972.41;4999389;28;20085;-82
2023/07/03 05:00:18;;;;;;;16.45;5.47;;;15.30;99.90;;;18.80;79.28;99972.44;4995033;28;20050;-84
2023/07/03 05:02:47;;;;;;;22.45;5.18;;;15.30;99.90;;;18.65;81.24;99973.38;4989244;28;20437;-85
2023/07/03 05:05:16;;;;;;;16.85;4.78;;;15.40;99.90;;;18.66;82.04;99974.22;5003201;28;20033;-84
2023/07/03 05:07:44;;;;;;;17.13;5.30;;;15.40;99.90;;;18.54;81.01;99969.88;5001294;28;20030;-82
2023/07/03 05:10:13;;;;;;;18.75;5.90;;;15.40;99.90;;;18.86;81.34;99966.91;5000861;28;20108;-85
2023/07/03 05:12:39;;;;;;;19.33;5.70;;;15.50;99.90;;;18.89;79.72;99980.13;4989707;28;20042;-84
2023/07/03 05:15:10;;;;;;;21.17;5.10;;;15.60;99.90;;;18.96;79.12;99967.63;4994281;28;20045;-86
2023/07/03 05:17:38;;;;;;;17.10;4.93;;;15.60;99.90;;;18.97;78.44;99976.72;5002613;28;20050;-82
2023/07/03 05:20:14;;;;;;;18.38;4.90;;;15.70;99.90;;;19.22;76.81;99969.34;5005831;28;20043;-85
2023/07/03 05:22:42;;;;;;;17.92;5.00;;;15.80;99.90;;;19.16;75.69;99970.53;4997202;28;20046;-84
2023/07/03 05:25:11;;;;;;;17.08;5.20;;;15.80;99.90;;;19.31;75.92;99978.66;4998800;28;20030;-83
2023/07/03 05:27:37;;;;;;;16.02;5.10;;;16.00;99.90;;;19.28;73.65;99976.47;5000290;28;20124;-84
2023/07/03 05:30:04;;;;;;;21.33;4.78;;;16.20;99.90;;;19.26;73.63;99981.47;5007666;28;20394;-84
2023/07/03 05:32:31;;;;;;;16.38;4.72;;;16.30;99.90;;;19.48;70.84;99978.19;5001141;28;20042;-87
2023/07/03 05:35:03;;;;;;;19.17;4.88;;;16.30;99.90;;;19.50;71.80;99981.53;5002596;28;20126;-86
2023/07/03 05:37:29;;;;;;;21.92;5.20;;;16.40;99.90;;;19.48;71.39;99985.69;5035311;28;20022;-80
2023/07/03 05:39:55;;;;;;;16.08;4.40;;;16.40;99.90;;;19.36;69.08;99983.31;5025184;28;20122;-81
2023/07/03 05:42:21;;;;;;;14.68;4.05;;;16.40;99.90;;;19.24;71.90;99994.75;5020076;28;20035;-82
2023/07/03 05:44:48;;;;;;;15.45;4.43;;;16.30;99.90;;;19.44;71.88;99995.69;5013913;28;20156;-80
2023/07/03 05:47:15;;;;;;;14.80;4.28;;;16.30;99.90;;;19.66;70.24;100006.22;5024624;28;20046;-84
2023/07/03 05:49:42;;;;;;;14.20;4.00;;;16.40;99.90;;;19.66;69.31;100020.06;5022309;28;20157;-82
2023/07/03 05:52:10;;;;;;;13.18;4.05;;;16.40;99.90;;;19.41;68.76;100010.91;5012393;28;20096;-81
2023/07/03 05:54:36;;;;;;;;;;;16.40;99.90;;;19.63;68.91;100017.88;5013185;28;20486;-83
2023/07/03 05:57:12;;;;;;;14.07;4.43;;;16.40;99.90;;;19.66;68.97;100029.19;4994917;28;19917;-83
2023/07/03 05:59:40;;;;;;;13.25;3.83;;;16.40;99.90;;;19.69;69.25;100022.25;5001587;28;20049;-82
2023/07/03 06:02:12;;;;;;;15.95;4.28;;;16.40;99.90;;;19.81;68.75;100019.91;4994052;28;20481;-87
2023/07/03 06:04:38;;;;;;;14.18;4.60;;;16.50;99.90;;;19.92;67.28;100025.34;4998114;28;20037;-81
2023/07/03 06:07:05;;;;;;;15.48;4.10;;;16.60;99.90;;;20.13;67.55;100014.81;4997745;28;20129;-82
2023/07/03 06:09:33;;;;;;;14.87;3.90;;;16.70;99.90;;;20.14;65.97;100033.09;4979471;28;20642;-79
2023/07/03 06:11:59;;;;;;;19.17;4.10;;;16.90;99.90;;;20.21;65.26;100021.66;4995062;28;20799;-81
2023/07/03 06:14:25;;;;;;;17.48;4.03;;;17.00;99.90;;;20.33;65.59;100024.84;4996433;28;20049;-80
2023/07/03 06:16:53;;;;;;;12.07;3.67;;;17.10;99.90;;;20.44;64.36;100025.53;4983125;28;20033;-79
2023/07/03 06:19:20;;;;;;;15.43;4.18;;;17.10;99.90;;;20.60;63.36;100039.13;5005598;28;20065;-81
2023/07/03 06:21:46;;;;;;;17.45;4.22;;;17.20;99.90;;;20.45;62.37;100041.00;5000209;28;20046;-81
2023/07/03 06:24:13;;;;;;;18.42;4.10;;;17.30;99.90;;;20.73;62.87;100041.16;5007310;28;20042;-79
2023/07/03 06:26:42;;;;;;;14.15;4.22;;;17.40;99.90;;;21.18;61.28;100035.22;4989548;28;20041;-81
2023/07/03 06:29:11;;;;;;;16.30;4.35;;;17.60;99.90;;;20.77;61.72;100046.91;5016615;28;20038;-81
2023/07/03 06:31:36;;;;;;;14.57;4.00;;;17.60;99.90;;;21.19;60.36;100036.03;5019948;28;20037;-82
2023/07/03 06:34:03;;;;;;;17.85;4.40;;;17.70;99.90;;;21.10;61.93;100042.28;5019896;28;20032;-83
2023/07/03 06:36:31;;;;;;;17.42;4.55;;;17.70;99.90;;;20.76;61.76;100048.88;5017805;28;20121;-83
2023/07/03 06:39:04;;;;;;;13.70;4.07;;;17.80;99.90;;;20.97;60.75;100045.84;5000597;28;20034;-83
2023/07/03 06:41:34;;;;;;;15.48;3.90;;;17.80;99.90;;;21.00;61.11;100053.53;5008236;28;20200;-81
2023/07/03 06:44:02;;;;;;;14.07;3.70;;;17.80;99.90;;;21.39;59.34;100057.06;4996983;28;20615;-81
2023/07/03 06:46:28;;;;;;;13.40;3.30;;;18.00;99.90;;;20.82;60.93;100058.78;4994545;28;20545;-85
2023/07/03 06:48:55;;;;;;;14.43;3.83;;;18.00;99.90;;;21.17;57.22;100049.38;4978159;28;20035;-82
2023/07/03 06:51:22;;;;;;;17.33;3.60;;;18.10;99.90;;;20.78;59.05;100066.03;5011866;28;20041;-84
2023/07/03 06:53:48;;;;;;;13.20;3.58;;;18.00;99.90;;;20.81;58.04;100059.06;5000770;28;20038;-89
2023/07/03 06:56:15;;;;;;;17.92;3.67;;;17.90;99.90;;;20.64;58.54;100065.13;5006095;28;20026;-88
2023/07/03 06:58:40;;;;;;;15.90;3.88;;;17.70;99.90;;;20.49;60.54;100082.78;5000103;28;20034;-86
2023/07/03 07:01:11;;;;;;;12.50;3.33;;;17.50;99.90;;;20.84;59.60;100067.63;4996418;28;20489;-86
2023/07/03 07:03:38;;;;;;;17.85;4.22;;;17.50;99.90;;;20.80;58.80;100066.59;5006031;28;20069;-85
2023/07/03 07:06:19;;;;;;;18.40;3.60;;;17.60;99.90;;;21.24;58.51;100058.97;4999915;28;20093;-85
2023/07/03 07:08:45;;;;;;;13.05;3.55;;;17.70;99.90;;;21.52;57.15;100061.00;4974107;28;20069;-86
2023/07/03 07:11:19;;;;;;;15.40;3.75;;;18.00;99.90;;;21.52;56.55;100067.34;5001399;28;20037;-84
2023/07/03 07:13:47;;;;;;;16.42;3.95;;;18.10;99.90;;;21.40;57.31;100076.16;4997161;28;20053;-85
2023/07/03 07:16:18;;;;;;;16.17;4.05;;;18.20;99.90;;;20.91;59.26;100078.34;4996707;28;20038;-89
2023/07/03 07:18:48;;;;;;;14.13;4.38;;;18.10;99.90;;;21.86;55.86;100059.84;5004844;28;20084;-86
2023/07/03 07:21:14;;;;;;;13.48;3.65;;;18.40;99.90;;;21.42;56.53;100062.81;4981082;28;20038;-89
2023/07/03 07:23:40;;;;;;;14.13;3.45;;;18.40;99.90;;;21.90;55.73;100071.97;5001649;28;20041;-89
2023/07/03 07:26:07;;;;;;;17.27;3.67;;;18.50;99.90;;;22.55;53.10;100049.81;5000911;28;20042;-83
2023/07/03 07:28:33;;;;;;;15.57;5.00;;;18.80;99.90;;;22.28;52.52;100054.25;4993845;28;20038;-83
2023/07/03 07:30:59;;;;;;;14.25;3.40;;;19.00;99.90;;;22.11;53.29;100064.03;4993686;28;20314;-85
2023/07/03 07:33:25;;;;;;;14.20;3.65;;;19.00;99.90;;;22.43;52.31;100053.09;4998591;28;20121;-86
2023/07/03 07:35:52;;;;;;;16.38;4.10;;;19.00;99.90;;;22.30;52.28;100060.31;5003110;28;20045;-86
2023/07/03 07:38:21;;;;;;;12.43;3.67;;;18.90;99.90;;;21.92;52.65;100058.59;4978536;28;20046;-84
2023/07/03 07:40:48;;;;;;;17.67;3.60;;;18.70;99.90;;;21.94;53.62;100063.84;4977189;28;20092;-81
2023/07/03 07:43:14;;;;;;;13.47;4.17;;;18.60;99.90;;;22.02;54.57;100067.88;4999429;28;20133;-85
2023/07/03 07:45:40;;;;;;;16.17;4.22;;;18.50;99.90;;;21.91;53.65;100070.81;5000228;28;20169;-82
2023/07/03 07:48:06;;;;;;;18.65;3.80;;;18.40;99.90;;;21.98;53.90;100070.44;4999062;28;20041;-84
2023/07/03 07:50:36;;;;;;;16.90;3.80;;;18.20;99.90;;;21.16;57.21;100079.06;4998559;28;20060;-85
2023/07/03 07:53:02;;;;;;;16.08;4.55;;;17.90;99.90;;;20.82;57.65;100083.72;4997010;28;20022;-84
2023/07/03 07:55:28;;;;;;;15.68;3.95;;;17.60;99.90;;;20.88;58.87;100084.50;4997432;28;20029;-83
2023/07/03 07:57:54;;;;;;;17.55;4.57;;;17.50;99.90;;;20.77;60.01;100089.31;4999330;28;20458;-82
2023/07/03 08:00:20;;;;;;;11.80;3.67;;;17.20;99.90;;;20.74;60.19;100080.78;4991374;28;20442;-83
2023/07/03 08:02:46;;;;;;;16.02;4.43;;;17.20;99.90;;;20.90;61.21;100092.50;4992507;28;20034;-81
2023/07/03 08:05:12;;;;;;;14.93;4.28;;;17.30;99.90;;;21.19;60.66;100088.72;4993603;28;20091;-79
2023/07/03 08:07:38;;;;;;;25.77;4.07;;;17.40;99.90;;;20.94;59.95;100076.91;5002328;28;20114;-83
2023/07/03 08:10:05;;;;;;;13.73;4.00;;;17.50;99.90;;;20.86;61.18;100092.28;5004393;28;20030;-82
2023/07/03 08:12:31;;;;;;;18.70;4.78;;;17.40;99.90;;;20.60;62.40;100083.47;4992777;28;20095;-81
2023/07/03 08:14:56;;;;;;;14.82;4.40;;;17.40;99.90;;;21.25;59.95;100076.44;5003799;28;20038;-81
2023/07/03 08:17:22;;;;;;;18.45;4.43;;;17.50;99.90;;;21.19;59.92;100091.50;4975771;28;20276;-82
2023/07/03 08:19:48;;;;;;;17.48;4.80;;;17.80;99.90;;;21.95;58.07;100094.06;4994660;28;20052;-82
2023/07/03 08:22:13;;;;;;;16.85;4.28;;;18.20;99.90;;;22.11;58.15;100088.22;4978425;28;20042;-81
2023/07/03 08:24:39;;;;;;;17.83;4.68;;;18.60;99.90;;;22.09;57.49;100085.75;4995654;28;20049;-81
2023/07/03 08:27:05;;;;;;;17.27;4.82;;;18.60;99.90;;;21.87;57.74;100082.84;5004683;28;20037;-79
2023/07/03 08:29:31;;;;;;;17.67;4.90;;;18.70;99.90;;;22.35;57.38;100101.09;4993066;28;20129;-81
2023/07/03 08:31:56;;;;;;;18.42;5.13;;;18.90;99.90;;;21.98;57.76;100101.78;4979316;28;20486;-81
2023/07/03 08:34:22;;;;;;;19.38;5.40;;;18.90;99.90;;;22.04;57.97;100108.06;4999127;28;20042;-81
2023/07/03 08:36:48;;;;;;;17.17;4.95;;;18.80;99.90;;;22.34;56.34;100107.78;5001995;28;20042;-82
2023/07/03 08:39:14;;;;;;;17.95;4.55;;;18.90;99.90;;;22.75;54.84;100106.91;4996330;28;20046;-81
2023/07/03 08:41:56;;;;;;;16.38;4.55;;;19.10;99.90;;;22.96;53.65;100098.09;5002614;28;20035;-82
2023/07/03 08:44:21;;;;;;;15.82;4.85;;;19.50;99.90;;;22.71;53.73;100103.09;5003607;28;20038;-82
2023/07/03 08:46:49;;;;;;;15.70;4.60;;;19.60;99.90;;;23.52;52.83;100089.53;5007905;28;20112;-81
2023/07/03 08:49:19;;;;;;;17.58;4.78;;;20.00;99.90;;;23.97;51.76;100096.97;5000164;28;20041;-82
2023/07/03 08:51:46;;;;;;;19.85;4.85;;;20.30;99.90;;;24.23;50.69;100090.69;4985450;28;20058;-84
2023/07/03 08:54:25;;;;;;;;;;;20.80;99.90;;;24.84;50.18;100092.81;5000607;28;20034;-82
2023/07/03 08:56:54;;;;;;;17.52;4.57;;;21.10;99.90;;;25.06;48.61;100075.09;5010990;28;19972;-83
2023/07/03 08:59:20;;;;;;;16.77;5.03;;;21.30;99.90;;;23.89;50.24;100089.41;4984411;28;20074;-83
2023/07/03 09:02:12;;;;;;;14.63;4.72;;;21.00;99.90;;;24.18;49.89;100079.72;5004680;28;20064;-84
2023/07/03 09:05:05;;;;;;;15.85;5.15;;;20.90;99.90;;;24.52;49.32;100083.72;4997850;28;20034;-83
2023/07/03 09:07:44;;;;;;;20.42;4.88;;;21.10;99.80;;;24.92;48.20;100066.06;4999551;28;20414;-81
2023/07/03 09:10:29;;;;;;;16.48;5.03;;;21.50;99.00;;;24.36;48.07;100069.41;5002529;28;20088;-82
2023/07/03 09:13:09;;;;;;;15.10;4.00;;;21.20;98.00;;;25.38;47.46;100088.88;5013087;28;20066;-82
2023/07/03 09:15:48;;;;;;;16.00;4.97;;;21.50;99.10;;;24.78;48.73;100094.13;5003154;28;20418;-81
2023/07/03 09:18:24;;;;;;;13.85;4.10;;;21.40;99.00;;;24.55;46.87;100081.09;5003376;28;20110;-81
2023/07/03 09:20:50;;;;;;;12.52;3.92;;;21.30;97.50;;;24.37;47.50;100096.16;5006595;28;20049;-81
2023/07/03 09:23:55;;;;;;;17.20;4.78;;;20.90;98.40;;;24.38;47.52;100106.16;5003453;28;20039;-80
2023/07/03 09:26:33;;;;;;;13.65;4.35;;;20.90;98.50;;;24.92;47.12;100105.13;5009885;28;20050;-79
2023/07/03 09:29:01;;;;;;;16.60;4.28;;;21.10;98.40;;;25.03;46.79;100105.63;5007987;28;20034;-82
2023/07/03 09:31:28;;;;;;;14.80;4.45;;;21.20;98.10;;;24.09;46.11;100105.59;4999085;28;20061;-80
2023/07/03 09:33:53;;;;;;;18.15;4.55;;;20.80;97.00;;;24.56;46.33;100099.47;5001894;28;20034;-81
2023/07/03 09:36:37;;;;;;;14.80;4.30;;;21.00;97.70;;;24.47;44.63;100081.94;5004789;28;20320;-81
2023/07/03 09:39:22;;;;;;;12.82;4.07;;;21.10;96.10;;;25.19;43.61;100078.88;5000836;28;20038;-80
2023/07/03 09:41:48;;;;;;;17.85;4.80;;;21.60;95.70;;;24.22;43.65;100084.31;5003191;28;20038;-82
2023/07/03 09:44:18;;;;;;;15.50;4.60;;;21.50;94.50;;;24.09;45.77;100102.78;5011323;28;20548;-80
2023/07/03 09:46:48;;;;;;;13.25;4.30;;;21.30;95.70;;;24.57;44.96;100097.53;4987803;28;20130;-80
2023/07/03 09:49:22;;;;;;;14.55;3.97;;;21.30;95.80;;;24.84;44.32;100096.44;5020898;28;20045;-81
2023/07/03 09:51:53;;;;;;;17.02;4.63;;;21.30;95.90;;;24.34;45.42;100099.59;5007842;28;20062;-84
2023/07/03 09:54:27;;;;;;;11.85;3.90;;;21.10;96.00;;;24.34;46.36;100103.22;5009693;28;20080;-80
2023/07/03 09:56:55;;;;;;;12.98;4.35;;;20.90;97.00;;;24.32;46.65;100090.72;4997389;28;20153;-84
2023/07/03 09:59:24;;;;;;;14.73;4.55;;;20.90;96.90;;;24.79;45.66;100104.97;4993592;28;20046;-82
2023/07/03 10:01:58;;;;;;;17.10;4.55;;;21.10;96.60;;;24.96;44.75;100087.41;5008978;28;20176;-81
2023/07/03 10:04:30;;;;;;;16.85;4.20;;;21.50;96.20;;;24.82;44.08;100086.75;5015628;28;20034;-83
2023/07/03 10:07:04;;;;;;;16.40;4.40;;;21.40;95.10;;;24.54;44.73;100095.38;5004606;28;20053;-83
2023/07/03 10:09:39;;;;;;;15.68;4.25;;;21.50;95.10;;;24.15;45.92;100111.84;4998268;28;20034;-81
2023/07/03 10:12:39;;;;;;;14.45;4.60;;;21.10;95.70;;;24.12;45.12;100091.00;5003750;28;20049;-81
2023/07/03 10:15:19;;;;;;;15.45;4.35;;;20.80;95.60;;;23.34;46.50;100122.00;5010491;28;20038;-83
2023/07/03 10:17:54;;;;;;;12.88;3.83;;;20.10;96.90;;;23.25;47.48;100131.09;5006612;28;20042;-80